Time;durP1;ratioP1;P1;durP2;ratioP2;P2;SDS_P1;SDS_P2;PMS_P1;PMS_P2;Temp;Humidity;BMP_temperature;BMP_pressure;BME280_temperature;BME280_humidity;BME280_pressure;Samples;Min_cycle;Max_cycle;Signal;HPM_P1;HPM_P2
2023/08/20 00:00:39;;;;;;;1999.90;999.90;;;23.50;99.90;;;;;;4971370;28;20789;-71
2023/08/20 00:03:13;;;;;;;1999.90;999.90;;;23.60;99.90;;;;;;4970765;28;20439;-70
2023/08/20 00:05:40;;;;;;;1999.90;999.90;;;23.50;99.90;;;;;;4964094;28;20420;-68
2023/08/20 00:08:07;;;;;;;1999.90;999.90;;;23.50;99.90;;;;;;4971412;28;20412;-69
2023/08/20 00:10:34;;;;;;;1999.90;999.90;;;23.60;99.90;;;;;;4971501;28;20431;-70
2023/08/20 00:13:03;;;;;;;1999.90;999.90;;;23.60;99.90;;;;;;4968544;28;20528;-70
2023/08/20 00:15:30;;;;;;;1999.90;999.90;;;23.60;99.90;;;;;;4971246;28;20578;-70
2023/08/20 00:17:57;;;;;;;1999.90;999.90;;;23.60;99.90;;;;;;4971633;28;20416;-70
2023/08/20 00:20:25;;;;;;;1999.90;999.90;;;23.60;99.90;;;;;;4971297;28;20903;-70
2023/08/20 00:22:52;;;;;;;1999.90;999.90;;;23.50;99.90;;;;;;4970697;28;20444;-70
2023/08/20 00:25:19;;;;;;;1999.90;999.90;;;23.50;99.90;;;;;;4971573;28;20520;-70
2023/08/20 00:27:46;;;;;;;1999.90;999.90;;;23.40;99.90;;;;;;4971562;28;20425;-70
2023/08/20 00:30:14;;;;;;;1999.90;999.90;;;23.30;99.90;;;;;;4971140;28;20951;-70
2023/08/20 00:32:41;;;;;;;1999.90;999.90;;;23.30;99.90;;;;;;4974975;28;20470;-70
2023/08/20 00:35:08;;;;;;;1999.90;999.90;;;23.30;99.90;;;;;;4974230;28;20931;-69
2023/08/20 00:37:36;;;;;;;1999.90;999.90;;;23.30;99.90;;;;;;4975078;28;20511;-70
2023/08/20 00:40:05;;;;;;;1999.90;999.90;;;23.30;99.90;;;;;;4974699;28;20452;-70
2023/08/20 00:42:31;;;;;;;1999.90;999.90;;;23.30;99.90;;;;;;4974421;28;20458;-70
2023/08/20 00:44:58;;;;;;;1999.90;999.90;;;23.30;99.90;;;;;;4974963;28;20420;-70
2023/08/20 00:47:26;;;;;;;1999.90;999.90;;;23.30;99.90;;;;;;4973768;28;20439;-70
2023/08/20 00:49:53;;;;;;;1999.90;999.90;;;23.30;99.90;;;;;;4974473;28;20452;-70
2023/08/20 00:52:21;;;;;;;1999.90;999.90;;;23.40;99.90;;;;;;4974266;28;20907;-70
2023/08/20 00:54:50;;;;;;;1999.90;999.90;;;23.40;99.90;;;;;;4974487;28;20420;-70
2023/08/20 00:57:19;;;;;;;1999.90;999.90;;;23.40;99.90;;;;;;4973641;28;20488;-70
2023/08/20 00:59:47;;;;;;;1999.90;999.90;;;23.40;99.90;;;;;;4974227;28;20419;-69
2023/08/20 01:02:14;;;;;;;1999.90;999.90;;;23.30;99.90;;;;;;4974527;28;20424;-69
2023/08/20 01:04:42;;;;;;;1999.90;999.90;;;23.30;99.90;;;;;;4974528;28;20431;-70
2023/08/20 01:07:18;;;;;;;1999.90;999.90;;;23.30;99.90;;;;;;4974731;28;20416;-70
2023/08/20 01:09:51;;;;;;;1999.90;999.90;;;23.40;99.90;;;;;;4973344;28;20940;-70
2023/08/20 01:12:20;;;;;;;1999.90;999.90;;;23.30;99.90;;;;;;4973082;28;20440;-70
2023/08/20 01:14:46;;;;;;;1999.90;999.90;;;23.40;99.90;;;;;;4974306;28;20442;-70
2023/08/20 01:17:13;;;;;;;1999.90;999.90;;;23.40;99.90;;;;;;4974288;28;20427;-70
2023/08/20 01:19:41;;;;;;;1999.90;999.90;;;23.40;99.90;;;;;;4973994;28;20804;-69
2023/08/20 01:22:30;;;;;;;1999.90;999.90;;;23.30;99.90;;;;;;4973146;28;20545;-70
2023/08/20 01:25:05;;;;;;;1999.90;999.90;;;23.40;99.90;;;;;;4968294;28;20435;-69
2023/08/20 01:27:45;;;;;;;1999.90;999.90;;;23.40;99.90;;;;;;4974135;28;20483;-68
2023/08/20 01:30:13;;;;;;;1999.90;999.90;;;23.40;99.90;;;;;;4973897;28;20439;-70
2023/08/20 01:32:42;;;;;;;1999.90;999.90;;;23.30;99.90;;;;;;4973769;28;20420;-70
2023/08/20 01:35:13;;;;;;;1999.90;999.90;;;23.40;99.90;;;;;;4972782;28;20519;-70
2023/08/20 01:37:40;;;;;;;1999.90;999.90;;;23.30;99.90;;;;;;4973375;28;20559;-70
2023/08/20 01:40:10;;;;;;;1999.90;999.90;;;23.30;99.90;;;;;;4973904;28;20419;-70
2023/08/20 01:42:37;;;;;;;1999.90;999.90;;;23.30;99.90;;;;;;4972974;28;21004;-70
2023/08/20 01:45:04;;;;;;;1999.90;999.90;;;23.30;99.90;;;;;;4972019;28;20443;-70
2023/08/20 01:47:32;;;;;;;1999.90;999.90;;;23.40;99.90;;;;;;4973653;28;20428;-70
2023/08/20 01:49:59;;;;;;;1999.90;999.90;;;23.40;99.90;;;;;;4973730;28;20817;-70
2023/08/20 01:52:26;;;;;;;1999.90;999.90;;;23.30;99.90;;;;;;4973647;28;20458;-69
2023/08/20 01:54:53;;;;;;;1999.90;999.90;;;23.30;99.90;;;;;;4972685;28;20932;-67
2023/08/20 01:57:20;;;;;;;1999.90;999.90;;;23.30;99.90;;;;;;4972621;28;20464;-69
2023/08/20 01:59:48;;;;;;;1999.90;999.90;;;23.20;99.90;;;;;;4973584;28;20474;-70
2023/08/20 02:02:15;;;;;;;1999.90;999.90;;;23.10;99.90;;;;;;4973555;28;20423;-70
2023/08/20 02:04:43;;;;;;;1999.90;999.90;;;23.00;99.90;;;;;;4973589;28;20923;-69
2023/08/20 02:07:09;;;;;;;1999.90;999.90;;;23.00;99.90;;;;;;4972342;28;20444;-70
2023/08/20 02:09:37;;;;;;;1999.90;999.90;;;22.90;99.90;;;;;;4973159;28;20439;-69
2023/08/20 02:12:04;;;;;;;1999.90;999.90;;;22.90;99.90;;;;;;4973260;28;20475;-70
2023/08/20 02:14:34;;;;;;;1999.90;999.90;;;22.90;99.90;;;;;;4973564;28;20423;-70
2023/08/20 02:17:01;;;;;;;1999.90;999.90;;;22.90;99.90;;;;;;4973627;28;20416;-70
2023/08/20 02:19:28;;;;;;;1999.90;999.90;;;22.80;99.90;;;;;;4972104;28;20455;-70
2023/08/20 02:21:56;;;;;;;1999.90;999.90;;;22.80;99.90;;;;;;4973015;28;20423;-70
2023/08/20 02:24:22;;;;;;;1999.90;999.90;;;22.70;99.90;;;;;;4972155;28;20443;-70
2023/08/20 02:26:49;;;;;;;1999.90;999.90;;;22.60;99.90;;;;;;4973031;28;20420;-70
2023/08/20 02:29:16;;;;;;;1999.90;999.90;;;22.60;99.90;;;;;;4972310;28;20422;-70
2023/08/20 02:31:42;;;;;;;1999.90;999.90;;;22.60;99.90;;;;;;4972550;28;20796;-70
2023/08/20 02:34:09;;;;;;;1999.90;999.90;;;22.70;99.90;;;;;;4972960;28;20419;-70
2023/08/20 02:36:36;;;;;;;1999.90;999.90;;;22.70;99.90;;;;;;4972803;28;20424;-70
2023/08/20 02:39:05;;;;;;;1999.90;999.90;;;22.80;99.90;;;;;;4972491;28;20416;-70
2023/08/20 02:41:31;;;;;;;1999.90;999.90;;;22.80;99.90;;;;;;4971050;28;20468;-69
2023/08/20 02:43:58;;;;;;;1999.90;999.90;;;22.80;99.90;;;;;;4972518;28;20424;-70
2023/08/20 02:46:25;;;;;;;1999.90;999.90;;;22.90;99.90;;;;;;4972438;28;20804;-69
2023/08/20 02:48:51;;;;;;;1999.90;999.90;;;22.90;99.90;;;;;;4972633;28;20431;-69
2023/08/20 02:51:18;;;;;;;1999.90;999.90;;;22.90;99.90;;;;;;4972106;28;20432;-70
2023/08/20 02:53:45;;;;;;;1999.90;999.90;;;23.00;99.90;;;;;;4971160;28;20440;-69
2023/08/20 02:56:13;;;;;;;1999.90;999.90;;;23.00;99.90;;;;;;4972359;28;20419;-70
2023/08/20 02:58:39;;;;;;;1999.90;999.90;;;23.00;99.90;;;;;;4972316;28;20427;-70
2023/08/20 03:01:06;;;;;;;1999.90;999.90;;;23.00;99.90;;;;;;4972310;28;20419;-69
2023/08/20 03:03:33;;;;;;;1999.90;999.90;;;23.00;99.90;;;;;;4972308;28;20424;-70
2023/08/20 03:06:00;;;;;;;1999.90;999.90;;;23.00;99.90;;;;;;4970650;28;20449;-70
2023/08/20 03:08:26;;;;;;;1999.90;999.90;;;22.90;99.90;;;;;;4971870;28;20423;-70
2023/08/20 03:10:53;;;;;;;1999.90;999.90;;;22.80;99.90;;;;;;4972082;28;20877;-69
2023/08/20 03:13:21;;;;;;;1999.90;999.90;;;22.90;99.90;;;;;;4971996;28;20416;-70
2023/08/20 03:15:48;;;;;;;1999.90;999.90;;;22.90;99.90;;;;;;4972064;28;20804;-70
2023/08/20 03:18:14;;;;;;;1999.90;999.90;;;22.90;99.90;;;;;;4971236;28;20447;-70
2023/08/20 03:20:41;;;;;;;1999.90;999.90;;;22.90;99.90;;;;;;4971629;28;20442;-70
2023/08/20 03:23:08;;;;;;;1999.90;999.90;;;22.80;99.90;;;;;;4972002;28;20420;-69
2023/08/20 03:25:34;;;;;;;1999.90;999.90;;;22.80;99.90;;;;;;4971985;28;20412;-70
2023/08/20 03:28:01;;;;;;;1999.90;999.90;;;22.80;99.90;;;;;;4972086;28;20439;-70
2023/08/20 03:30:29;;;;;;;1999.90;999.90;;;22.80;99.90;;;;;;4970995;28;20436;-69
2023/08/20 03:32:56;;;;;;;1999.90;999.90;;;22.90;99.90;;;;;;4964033;28;20443;-71
2023/08/20 03:35:22;;;;;;;1999.90;999.90;;;23.00;99.90;;;;;;4972128;28;20428;-70
2023/08/20 03:37:49;;;;;;;1999.90;999.90;;;22.80;99.90;;;;;;4971914;28;20416;-70
2023/08/20 03:40:18;;;;;;;1999.90;999.90;;;22.80;99.90;;;;;;4971656;28;20420;-70
2023/08/20 03:42:44;;;;;;;1999.90;999.90;;;22.90;99.90;;;;;;4970133;28;20447;-70
2023/08/20 03:45:11;;;;;;;1999.90;999.90;;;22.80;99.90;;;;;;4971438;28;20434;-70
2023/08/20 03:47:39;;;;;;;1999.90;999.90;;;22.80;99.90;;;;;;4971795;28;20438;-70
2023/08/20 03:50:07;;;;;;;1999.90;999.90;;;22.80;99.90;;;;;;4970649;28;20517;-70
2023/08/20 03:52:33;;;;;;;1999.90;999.90;;;22.80;99.90;;;;;;4971210;28;20447;-70
2023/08/20 03:55:00;;;;;;;1999.90;999.90;;;22.70;99.90;;;;;;4971586;28;20939;-70
2023/08/20 03:57:27;;;;;;;1999.90;999.90;;;22.60;99.90;;;;;;4971446;28;20424;-70
2023/08/20 03:59:53;;;;;;;1999.90;999.90;;;22.60;99.90;;;;;;4970337;28;20423;-69
2023/08/20 04:02:20;;;;;;;1999.90;999.90;;;22.60;99.90;;;;;;4970182;28;20439;-70
2023/08/20 04:04:48;;;;;;;1999.90;999.90;;;22.50;99.90;;;;;;4972120;28;20427;-70
2023/08/20 04:07:15;;;;;;;1999.90;999.90;;;22.60;99.90;;;;;;4975291;28;20416;-70
2023/08/20 04:09:42;;;;;;;1999.90;999.90;;;22.70;99.90;;;;;;4975173;28;20427;-70
2023/08/20 04:12:09;;;;;;;1999.90;999.90;;;22.70;99.90;;;;;;4974243;28;20434;-70
2023/08/20 04:14:36;;;;;;;1999.90;999.90;;;22.60;99.90;;;;;;4975226;28;20796;-70
2023/08/20 04:17:02;;;;;;;1999.90;999.90;;;22.60;99.90;;;;;;4975466;28;20422;-68
2023/08/20 04:19:29;;;;;;;1999.90;999.90;;;22.60;99.90;;;;;;4975078;28;20424;-70
2023/08/20 04:21:57;;;;;;;1999.90;999.90;;;22.60;99.90;;;;;;4975081;28;20412;-69
2023/08/20 04:24:24;;;;;;;1999.90;999.90;;;22.60;99.90;;;;;;4974473;28;20467;-69
2023/08/20 04:26:50;;;;;;;1999.90;999.90;;;23.00;99.90;;;;;;4974895;28;20427;-69
2023/08/20 04:29:17;;;;;;;1999.90;999.90;;;22.70;99.90;;;;;;4975298;28;20427;-69
2023/08/20 04:31:45;;;;;;;1999.90;999.90;;;22.70;99.90;;;;;;4974762;28;20432;-69
2023/08/20 04:34:12;;;;;;;1999.90;999.90;;;22.50;99.90;;;;;;4975077;28;20900;-70
2023/08/20 04:36:38;;;;;;;1999.90;999.90;;;22.50;99.90;;;;;;4972123;28;20456;-67
2023/08/20 04:39:06;;;;;;;1999.90;999.90;;;22.60;99.90;;;;;;4974539;28;20416;-70
2023/08/20 04:41:33;;;;;;;1999.90;999.90;;;22.60;99.90;;;;;;4974427;28;20416;-70
2023/08/20 04:44:00;;;;;;;1999.90;999.90;;;22.60;99.90;;;;;;4975074;28;20416;-70
2023/08/20 04:46:28;;;;;;;1999.90;999.90;;;22.70;99.90;;;;;;4974970;28;20416;-70
2023/08/20 04:48:55;;;;;;;1999.90;999.90;;;22.70;99.90;;;;;;4973912;28;20789;-70
2023/08/20 04:51:21;;;;;;;1999.90;999.90;;;22.70;99.90;;;;;;4974357;28;20959;-68
2023/08/20 04:53:48;;;;;;;1999.90;999.90;;;22.80;99.90;;;;;;4974921;28;20424;-70
2023/08/20 04:56:16;;;;;;;1999.90;999.90;;;22.80;99.90;;;;;;4974840;28;20412;-69
2023/08/20 04:58:43;;;;;;;1999.90;999.90;;;22.80;99.90;;;;;;4974612;28;20416;-70
2023/08/20 05:01:09;;;;;;;1999.90;999.90;;;22.70;99.90;;;;;;4972650;28;20436;-69
2023/08/20 05:03:36;;;;;;;1999.90;999.90;;;22.70;99.90;;;;;;4974463;28;20420;-70
2023/08/20 05:06:04;;;;;;;1999.90;999.90;;;22.60;99.90;;;;;;4974328;28;20431;-68
2023/08/20 05:08:31;;;;;;;1999.90;999.90;;;22.60;99.90;;;;;;4974640;28;20461;-70
2023/08/20 05:10:57;;;;;;;1999.90;999.90;;;22.50;99.90;;;;;;4974472;28;20432;-69
2023/08/20 05:13:25;;;;;;;1999.90;999.90;;;22.40;99.90;;;;;;4973355;28;20447;-69
2023/08/20 05:15:52;;;;;;;1999.90;999.90;;;22.50;99.90;;;;;;4974044;28;20443;-70
2023/08/20 05:18:19;;;;;;;1999.90;999.90;;;22.50;99.90;;;;;;4973849;28;20412;-70
2023/08/20 05:20:45;;;;;;;1999.90;999.90;;;22.40;99.90;;;;;;4974041;28;20423;-68
2023/08/20 05:23:12;;;;;;;1999.90;999.90;;;22.50;99.90;;;;;;4974197;28;20412;-69
2023/08/20 05:25:40;;;;;;;1999.90;999.90;;;22.60;99.90;;;;;;5008220;23;20447;-65
2023/08/20 05:28:06;;;;;;;1999.90;999.90;;;22.60;99.90;;;;;;4978723;28;20904;-65
2023/08/20 05:30:36;;;;;;;1999.90;999.90;;;22.60;99.90;;;;;;4973505;28;20443;-65
2023/08/20 05:33:03;;;;;;;1999.90;999.90;;;22.50;99.90;;;;;;4973606;28;20416;-65
2023/08/20 05:35:29;;;;;;;1999.90;999.90;;;22.50;99.90;;;;;;4973720;28;20495;-65
2023/08/20 05:37:56;;;;;;;1999.90;999.90;;;22.50;99.90;;;;;;4982298;28;20434;-65
2023/08/20 05:40:23;;;;;;;1999.90;999.90;;;22.50;99.90;;;;;;4973414;28;20909;-67
2023/08/20 05:42:49;;;;;;;1999.90;999.90;;;22.50;99.90;;;;;;4973243;28;20817;-67
2023/08/20 05:45:16;;;;;;;1999.90;999.90;;;22.50;99.90;;;;;;4973691;28;20419;-68
2023/08/20 05:47:44;;;;;;;1999.90;999.90;;;22.30;99.90;;;;;;4976163;28;20434;-67
2023/08/20 05:50:11;;;;;;;1999.90;999.90;;;22.30;99.90;;;;;;4981375;28;20798;-67
2023/08/20 05:52:37;;;;;;;1999.90;999.90;;;22.30;99.90;;;;;;4973173;28;20432;-67
2023/08/20 05:55:05;;;;;;;1999.90;999.90;;;22.30;99.90;;;;;;4973282;28;20409;-67
2023/08/20 05:57:32;;;;;;;1999.90;999.90;;;22.30;99.90;;;;;;4973117;28;20428;-67
2023/08/20 05:59:58;;;;;;;1999.90;999.90;;;22.30;99.90;;;;;;4975959;28;20434;-67
2023/08/20 06:02:25;;;;;;;1999.90;999.90;;;22.30;99.90;;;;;;4981010;28;20412;-67
2023/08/20 06:04:53;;;;;;;1999.90;999.90;;;22.30;99.90;;;;;;4973808;28;20923;-67
2023/08/20 06:07:20;;;;;;;1999.90;999.90;;;22.30;99.90;;;;;;4983716;28;20445;-67
2023/08/20 06:09:46;;;;;;;1999.90;999.90;;;22.20;99.90;;;;;;4975759;28;20431;-67
2023/08/20 06:12:13;;;;;;;1999.90;999.90;;;22.20;99.90;;;;;;4972606;28;20443;-67
2023/08/20 06:14:40;;;;;;;1999.90;999.90;;;22.20;99.90;;;;;;4973036;28;20427;-67
2023/08/20 06:17:06;;;;;;;1999.90;999.90;;;22.10;99.90;;;;;;4982051;28;20438;-67
2023/08/20 06:19:33;;;;;;;1999.90;999.90;;;22.00;99.90;;;;;;4977561;28;20412;-67
2023/08/20 06:22:01;;;;;;;1999.90;999.90;;;22.00;99.90;;;;;;4972659;28;20408;-67
2023/08/20 06:24:28;;;;;;;1999.90;999.90;;;22.10;99.90;;;;;;4981405;28;20434;-67
2023/08/20 06:26:54;;;;;;;1999.90;999.90;;;22.00;99.90;;;;;;4982575;28;20426;-67
2023/08/20 06:29:22;;;;;;;1999.90;999.90;;;22.00;99.90;;;;;;4971833;28;20412;-67
2023/08/20 06:31:50;;;;;;;1999.90;999.90;;;22.20;99.90;;;;;;4972373;28;20530;-67
2023/08/20 06:34:17;;;;;;;1999.90;999.90;;;22.10;99.90;;;;;;4975646;28;20475;-67
2023/08/20 06:36:44;;;;;;;1999.90;999.90;;;22.10;99.90;;;;;;4980508;28;20420;-67
2023/08/20 06:39:12;;;;;;;1999.90;999.90;;;22.10;99.90;;;;;;4972361;28;20427;-67
2023/08/20 06:41:39;;;;;;;1999.90;999.90;;;22.20;99.90;;;;;;4972094;28;20471;-67
2023/08/20 06:44:05;;;;;;;1999.90;999.90;;;22.40;99.90;;;;;;4972204;28;20423;-67
2023/08/20 06:46:32;;;;;;;1999.90;999.90;;;22.40;99.90;;;;;;4979873;28;20861;-67
2023/08/20 06:48:59;;;;;;;1999.90;999.90;;;22.40;99.90;;;;;;4981786;28;20418;-67
2023/08/20 06:51:27;;;;;;;1999.90;999.90;;;22.50;99.90;;;;;;4972030;28;20438;-67
2023/08/20 06:53:54;;;;;;;1999.90;999.90;;;22.50;99.90;;;;;;4972301;28;20479;-67
2023/08/20 06:56:22;;;;;;;1999.90;999.90;;;22.70;99.90;;;;;;4972392;28;20898;-67
2023/08/20 06:58:49;;;;;;;1999.90;999.90;;;22.80;99.90;;;;;;4975839;28;20444;-68
2023/08/20 07:01:26;;;;;;;1999.90;999.90;;;22.80;99.90;;;;;;5107948;27;20356;-65
2023/08/20 07:03:53;;;;;;;1999.90;999.90;;;23.00;99.90;;;;;;5107969;28;20409;-67
2023/08/20 07:06:19;;;;;;;1999.90;999.90;;;23.20;99.90;;;;;;5108383;28;20416;-65
2023/08/20 07:08:46;;;;;;;1999.90;999.90;;;23.60;99.90;;;;;;5108186;28;20409;-66
2023/08/20 07:11:13;;;;;;;1999.90;999.90;;;23.60;99.90;;;;;;5105474;28;20941;-65
2023/08/20 07:13:40;;;;;;;1999.90;999.90;;;23.80;99.90;;;;;;5107937;28;20409;-67
2023/08/20 07:16:06;;;;;;;1999.90;999.90;;;24.00;99.90;;;;;;5107871;28;20406;-67
2023/08/20 07:18:34;;;;;;;1999.90;999.90;;;24.10;99.90;;;;;;5107682;28;20883;-68
2023/08/20 07:21:01;;;;;;;1999.90;999.90;;;24.10;99.90;;;;;;5107873;28;20428;-67
2023/08/20 07:23:28;;;;;;;1999.90;999.90;;;24.20;99.90;;;;;;5105571;28;20433;-67
2023/08/20 07:26:06;;;;;;;1999.90;999.90;;;24.40;99.90;;;;;;5107713;28;20564;-67
2023/08/20 07:31:13;;;;;;;1999.90;999.90;;;25.20;99.90;;;;;;5107184;28;20389;-68
2023/08/20 07:33:41;;;;;;;1999.90;999.90;;;25.70;99.90;;;;;;5106067;28;20401;-68
2023/08/20 07:36:08;;;;;;;1999.90;999.90;;;25.50;99.90;;;;;;5106575;28;20453;-68
2023/08/20 07:38:37;;;;;;;1999.90;999.90;;;24.80;99.90;;;;;;5107617;28;20417;-67
2023/08/20 07:41:04;;;;;;;1999.90;999.90;;;24.40;99.90;;;;;;5107056;28;20425;-67
2023/08/20 07:43:30;;;;;;;1999.90;999.90;;;24.50;99.90;;;;;;5107631;28;20439;-68
2023/08/20 07:45:57;;;;;;;1999.90;999.90;;;24.90;99.90;;;;;;5105292;28;20477;-68
2023/08/20 07:48:24;;;;;;;1999.90;999.90;;;24.80;99.90;;;;;;5107308;28;20771;-68
2023/08/20 07:50:52;;;;;;;1999.90;999.90;;;24.60;99.90;;;;;;5107315;28;20397;-68
2023/08/20 07:53:19;;;;;;;1999.90;999.90;;;24.70;99.90;;;;;;5107038;28;20512;-68
2023/08/20 07:55:45;;;;;;;1999.90;999.90;;;25.00;99.90;;;;;;5107074;28;20420;-68
2023/08/20 07:58:12;;;;;;;1999.90;999.90;;;25.10;99.90;;;;;;5100693;28;20816;-68
2023/08/20 08:00:39;;;;;;;1999.90;999.90;;;25.70;99.90;;;;;;5113755;27;20424;-67
2023/08/20 08:03:05;;;;;;;1999.90;999.90;;;25.90;99.90;;;;;;5127397;27;20416;-68
2023/08/20 08:05:32;;;;;;;1999.90;999.90;;;26.20;99.90;;;;;;5122338;27;20917;-68
2023/08/20 08:08:00;;;;;;;1999.90;999.90;;;26.40;99.90;;;;;;5126986;28;20403;-68
2023/08/20 08:10:27;;;;;;;1999.90;999.90;;;26.50;99.90;;;;;;5127455;27;20407;-68
2023/08/20 08:12:54;;;;;;;1999.90;999.90;;;26.50;99.90;;;;;;5113178;28;20794;-68
2023/08/20 08:15:20;;;;;;;1999.90;999.90;;;26.70;99.90;;;;;;5113695;28;20404;-68
2023/08/20 08:17:47;;;;;;;1999.90;999.90;;;26.70;99.90;;;;;;5110102;28;20428;-68
2023/08/20 08:20:14;;;;;;;1999.90;999.90;;;26.60;99.90;;;;;;5113321;28;20427;-67
2023/08/20 08:22:41;;;;;;;1999.90;999.90;;;26.80;99.90;;;;;;5113258;27;20426;-67
2023/08/20 08:25:09;;;;;;;1999.90;999.90;;;26.80;99.90;;;;;;5113628;28;20413;-67
2023/08/20 08:27:35;;;;;;;1999.90;999.90;;;27.00;99.90;;;;;;5113564;28;20407;-68
2023/08/20 08:30:02;;;;;;;1999.90;999.90;;;26.90;99.90;;;;;;5111204;27;20420;-68
2023/08/20 08:32:29;;;;;;;1999.90;999.90;;;26.80;99.90;;;;;;5113216;28;20408;-68
2023/08/20 08:34:56;;;;;;;1999.90;999.90;;;27.00;99.90;;;;;;5113184;28;20898;-68
2023/08/20 08:37:22;;;;;;;1999.90;999.90;;;27.10;99.90;;;;;;5113185;28;20404;-68
2023/08/20 08:39:49;;;;;;;1999.90;999.90;;;27.30;99.90;;;;;;5111342;28;20797;-68
2023/08/20 08:42:21;;;;;;;1999.90;999.90;;;27.30;99.90;;;;;;5112795;28;20412;-67
2023/08/20 08:44:48;;;;;;;1999.90;999.90;;;27.50;99.90;;;;;;5113081;28;20411;-68
2023/08/20 08:47:15;;;;;;;1999.90;999.90;;;27.70;99.90;;;;;;5113059;28;20407;-68
2023/08/20 08:49:41;;;;;;;1999.90;999.90;;;27.40;99.90;;;;;;5112785;28;20417;-68
2023/08/20 08:52:09;;;;;;;1999.90;999.90;;;27.80;99.90;;;;;;5110678;27;20431;-68
2023/08/20 08:54:36;;;;;;;1999.90;999.90;;;27.70;99.90;;;;;;5112800;28;20412;-68
2023/08/20 08:57:03;;;;;;;1999.90;999.90;;;27.60;99.90;;;;;;5112920;28;20494;-68
2023/08/20 08:59:32;;;;;;;1999.90;999.90;;;27.80;99.90;;;;;;5112648;28;20411;-68
2023/08/20 09:01:59;;;;;;;1999.90;999.90;;;27.90;99.90;;;;;;5112594;28;20412;-68
2023/08/20 09:04:25;;;;;;;1999.90;999.90;;;27.90;99.90;;;;;;5110186;28;20431;-67
2023/08/20 09:06:53;;;;;;;1999.90;999.90;;;27.40;99.90;;;;;;5112720;28;20416;-67
2023/08/20 09:09:21;;;;;;;1999.90;999.90;;;27.70;99.90;;;;;;5112709;28;20439;-68
2023/08/20 09:11:49;;;;;;;1999.90;999.90;;;28.10;99.90;;;;;;5112320;28;20400;-68
2023/08/20 09:14:23;;;;;;;1999.90;999.90;;;28.50;99.90;;;;;;5112422;28;20782;-68
2023/08/20 09:16:57;;;;;;;1999.90;999.90;;;28.50;99.90;;;;;;5110418;28;20451;-68
2023/08/20 09:19:23;;;;;;;1999.90;999.90;;;28.20;99.90;;;;;;5112403;27;20457;-68
2023/08/20 09:21:53;;;;;;;1999.90;999.90;;;27.50;99.90;;;;;;5112323;27;20416;-68
2023/08/20 09:24:27;;;;;;;1999.90;999.90;;;27.00;99.90;;;;;;5111157;28;20917;-68
2023/08/20 09:26:58;;;;;;;1999.90;999.90;;;27.30;99.90;;;;;;5112299;28;20400;-68
2023/08/20 09:29:25;;;;;;;1999.90;999.90;;;27.20;99.90;;;;;;5108351;28;20464;-68
2023/08/20 09:32:03;;;;;;;1999.90;999.90;;;27.20;99.90;;;;;;5112034;28;20411;-68
2023/08/20 09:34:38;;;;;;;1999.90;999.90;;;27.80;99.90;;;;;;5112304;28;20457;-68
2023/08/20 09:37:08;;;;;;;1999.90;999.90;;;28.20;99.90;;;;;;5112142;28;20396;-68
2023/08/20 09:39:35;;;;;;;1999.90;999.90;;;28.40;99.90;;;;;;5110065;28;20411;-68
2023/08/20 09:42:03;;;;;;;1999.90;999.90;;;28.50;99.90;;;;;;5110202;28;20431;-68
2023/08/20 09:44:34;;;;;;;1999.90;999.90;;;28.90;99.90;;;;;;5103828;28;20404;-68
2023/08/20 09:47:04;;;;;;;1999.90;999.90;;;28.50;99.90;;;;;;5111964;28;20831;-68
2023/08/20 09:49:36;;;;;;;1999.90;999.90;;;28.80;99.90;;;;;;5111852;28;20416;-68
2023/08/20 09:52:05;;;;;;;1999.90;999.90;;;28.90;99.90;;;;;;5109601;28;20521;-68
2023/08/20 09:54:48;;;;;;;1999.90;999.90;;;29.00;99.90;;;;;;5109891;28;20446;-68
2023/08/20 09:57:28;;;;;;;1999.90;999.90;;;28.90;99.90;;;;;;5111495;28;21095;-68
2023/08/20 09:59:55;;;;;;;1999.90;999.90;;;28.90;99.90;;;;;;5111525;28;20431;-68
2023/08/20 10:02:24;;;;;;;1999.90;999.90;;;28.80;99.90;;;;;;5111583;28;20399;-68
2023/08/20 10:04:52;;;;;;;1999.90;999.90;;;28.90;99.90;;;;;;5109168;28;20794;-68
2023/08/20 10:07:19;;;;;;;1999.90;999.90;;;28.90;99.90;;;;;;5111499;28;20408;-68
2023/08/20 10:09:50;;;;;;;1999.90;999.90;;;28.80;99.90;;;;;;5111516;28;20408;-67
2023/08/20 10:12:17;;;;;;;1999.90;999.90;;;28.30;99.90;;;;;;5109281;28;20442;-68
2023/08/20 10:14:44;;;;;;;1999.90;999.90;;;28.20;99.90;;;;;;5111209;28;20419;-68
2023/08/20 10:17:12;;;;;;;1999.90;999.90;;;28.60;99.90;;;;;;5111217;28;20401;-68
2023/08/20 10:19:40;;;;;;;1999.90;999.90;;;28.40;99.90;;;;;;5111545;28;20417;-68
2023/08/20 10:22:08;;;;;;;1999.90;999.90;;;28.20;99.90;;;;;;5109473;28;20446;-68
2023/08/20 10:24:42;;;;;;;1999.90;999.90;;;28.40;99.90;;;;;;5111124;28;20412;-68
2023/08/20 10:27:10;;;;;;;1999.90;999.90;;;28.70;99.90;;;;;;5111259;28;20443;-68
2023/08/20 10:29:42;;;;;;;1999.90;999.90;;;28.70;99.90;;;;;;5111050;28;20400;-68
2023/08/20 10:32:10;;;;;;;1999.90;999.90;;;28.60;99.90;;;;;;5109113;28;20427;-68
2023/08/20 10:34:40;;;;;;;1999.90;999.90;;;28.40;99.90;;;;;;5110723;28;20412;-68
2023/08/20 10:37:11;;;;;;;1999.90;999.90;;;28.60;99.90;;;;;;5109266;28;20929;-68
2023/08/20 10:39:37;;;;;;;1999.90;999.90;;;28.70;99.90;;;;;;5103364;28;20432;-67
2023/08/20 10:42:26;;;;;;;1999.90;999.90;;;29.00;99.90;;;;;;5110533;28;20489;-68
2023/08/20 10:45:00;;;;;;;1999.90;999.90;;;28.90;99.90;;;;;;5105362;28;20404;-68
2023/08/20 10:47:36;;;;;;;1999.90;999.90;;;28.70;99.90;;;;;;5110855;28;20414;-68
2023/08/20 10:50:05;;;;;;;1999.90;999.90;;;28.60;99.90;;;;;;5110896;28;20405;-66
2023/08/20 10:52:32;;;;;;;1999.90;999.90;;;28.80;99.90;;;;;;5110634;28;20407;-66
2023/08/20 10:54:59;;;;;;;1999.90;999.90;;;29.00;99.90;;;;;;5106580;28;20430;-66
2023/08/20 10:57:34;;;;;;;1999.90;999.90;;;29.10;99.90;;;;;;5100726;28;20428;-66
2023/08/20 11:00:06;;;;;;;1999.90;999.90;;;28.40;99.90;;;;;;5110374;28;20894;-66
2023/08/20 11:02:33;;;;;;;1999.90;999.90;;;28.40;99.90;;;;;;5110623;28;20420;-67
2023/08/20 11:05:00;;;;;;;1999.90;999.90;;;28.70;99.90;;;;;;5110505;28;20408;-67
2023/08/20 11:07:30;;;;;;;1999.90;999.90;;;29.00;99.90;;;;;;5108953;28;20428;-66
2023/08/20 11:09:58;;;;;;;1999.90;999.90;;;29.20;99.90;;;;;;5110762;28;20416;-66
2023/08/20 11:12:24;;;;;;;1999.90;999.90;;;29.50;99.90;;;;;;5110622;28;20778;-67
2023/08/20 11:14:51;;;;;;;1999.90;999.90;;;29.40;99.90;;;;;;5110759;28;20408;-66
2023/08/20 11:17:18;;;;;;;1999.90;999.90;;;29.60;99.90;;;;;;5110595;28;20923;-66
2023/08/20 11:19:45;;;;;;;1999.90;999.90;;;29.40;99.90;;;;;;5108485;28;20427;-66
2023/08/20 11:22:13;;;;;;;1999.90;999.90;;;29.40;99.90;;;;;;5110495;28;20424;-67
2023/08/20 11:24:43;;;;;;;1999.90;999.90;;;29.60;99.90;;;;;;5110632;28;20444;-67
2023/08/20 11:27:10;;;;;;;1999.90;999.90;;;29.60;99.90;;;;;;5107009;22;20445;-68
2023/08/20 11:29:37;;;;;;;1999.90;999.90;;;29.50;99.90;;;;;;5073555;28;20430;-66
2023/08/20 11:32:03;;;;;;;1999.90;999.90;;;29.70;99.90;;;;;;5081948;28;20428;-67
2023/08/20 11:34:32;;;;;;;1999.90;999.90;;;29.80;99.90;;;;;;5089120;28;20412;-68
2023/08/20 11:36:59;;;;;;;1999.90;999.90;;;29.90;99.90;;;;;;5089959;28;20409;-65
2023/08/20 11:39:26;;;;;;;1999.90;999.90;;;30.10;99.90;;;;;;5089929;28;20413;-66
2023/08/20 11:41:54;;;;;;;1999.90;999.90;;;30.40;99.90;;;;;;5088234;28;20451;-65
2023/08/20 11:44:21;;;;;;;1999.90;999.90;;;30.30;99.90;;;;;;5089755;28;20413;-65
2023/08/20 11:46:48;;;;;;;1999.90;999.90;;;30.50;99.90;;;;;;5091530;28;20479;-64
2023/08/20 11:49:16;;;;;;;1999.90;999.90;;;30.40;99.90;;;;;;5093908;28;20413;-65
2023/08/20 11:51:45;;;;;;;1999.90;999.90;;;30.60;99.90;;;;;;5092330;28;20397;-65
2023/08/20 11:54:13;;;;;;;1999.90;999.90;;;30.90;99.90;;;;;;5090883;28;20440;-65
2023/08/20 11:56:46;;;;;;;1999.90;999.90;;;30.90;99.90;;;;;;5085034;28;20406;-65
2023/08/20 11:59:15;;;;;;;1999.90;999.90;;;30.70;99.90;;;;;;5093496;28;20757;-65
2023/08/20 12:01:41;;;;;;;1999.90;999.90;;;30.60;99.90;;;;;;5093294;28;20445;-66
2023/08/20 12:04:09;;;;;;;1999.90;999.90;;;30.70;99.90;;;;;;5091965;28;20429;-67